createdAt,value
2023-12-18T00:01:58.881Z,5.55
2023-12-18T00:04:28.042Z,5.10
2023-12-18T00:06:55.445Z,4.88
2023-12-18T00:09:22.826Z,4.90
2023-12-18T00:11:50.406Z,5.55
2023-12-18T00:14:17.818Z,5.47
2023-12-18T00:16:45.359Z,5.35
2023-12-18T00:19:12.956Z,5.45
2023-12-18T00:21:41.816Z,5.63
2023-12-18T00:24:09.308Z,5.97
2023-12-18T00:26:36.684Z,6.47
2023-12-18T00:29:04.137Z,5.57
2023-12-18T00:31:31.776Z,6.13
2023-12-18T00:33:59.483Z,5.65
2023-12-18T00:36:26.945Z,6.22
2023-12-18T00:38:55.694Z,6.13
2023-12-18T00:41:23.095Z,6.30
2023-12-18T00:43:51.862Z,5.75
2023-12-18T00:46:19.502Z,5.85
2023-12-18T00:48:47.012Z,6.03
2023-12-18T00:51:14.405Z,6.47
2023-12-18T00:53:41.851Z,6.13
2023-12-18T00:56:10.611Z,6.25
2023-12-18T00:58:38.030Z,6.05
2023-12-18T01:01:05.588Z,5.97
2023-12-18T01:03:33.185Z,6.07
2023-12-18T01:06:00.645Z,6.82
2023-12-18T01:08:28.176Z,6.30
2023-12-18T01:10:55.597Z,6.35
2023-12-18T01:13:24.440Z,7.28
2023-12-18T01:15:51.829Z,6.72
2023-12-18T01:18:19.418Z,6.80
2023-12-18T01:20:46.840Z,6.90
2023-12-18T01:23:14.916Z,7.78
2023-12-18T01:25:42.301Z,8.10
2023-12-18T01:28:09.734Z,7.78
2023-12-18T01:30:38.432Z,8.13
2023-12-18T01:33:06.276Z,8.15
2023-12-18T01:35:33.733Z,8.13
2023-12-18T01:38:01.071Z,9.35
2023-12-18T01:40:28.954Z,7.55
2023-12-18T01:42:56.292Z,8.18
2023-12-18T01:45:23.705Z,7.53
2023-12-18T01:47:52.551Z,8.05
2023-12-18T01:50:20.048Z,7.85
2023-12-18T01:52:47.527Z,8.32
2023-12-18T01:55:16.053Z,8.05
2023-12-18T01:57:43.842Z,8.15
2023-12-18T02:00:12.870Z,7.85
2023-12-18T02:02:40.495Z,7.85
2023-12-18T02:05:09.389Z,8.80
2023-12-18T02:07:37.266Z,9.02
2023-12-18T02:10:05.398Z,8.27
2023-12-18T02:12:32.893Z,8.52
2023-12-18T02:15:00.633Z,9.48
2023-12-18T02:17:28.025Z,9.60
2023-12-18T02:20:05.728Z,10.30
2023-12-18T02:22:36.321Z,8.85
2023-12-18T02:25:03.824Z,8.93
2023-12-18T02:27:31.830Z,9.40
2023-12-18T02:29:59.211Z,8.93
2023-12-18T02:32:26.628Z,10.23
2023-12-18T02:34:54.157Z,9.90
2023-12-18T02:37:23.773Z,9.48
2023-12-18T02:39:52.493Z,10.18
2023-12-18T02:42:19.941Z,10.02
2023-12-18T02:44:47.465Z,9.60
2023-12-18T02:47:14.838Z,11.18
2023-12-18T02:49:42.282Z,9.68
2023-12-18T02:52:09.654Z,10.63
2023-12-18T02:54:37.113Z,10.00
2023-12-18T02:57:15.458Z,10.05
2023-12-18T02:59:42.842Z,9.55
2023-12-18T03:02:10.179Z,9.68
2023-12-18T03:04:40.362Z,10.60
2023-12-18T03:07:08.011Z,9.80
2023-12-18T03:09:35.582Z,10.07
2023-12-18T03:12:03.124Z,10.48
2023-12-18T03:14:31.905Z,9.77
2023-12-18T03:16:59.342Z,9.70
2023-12-18T03:19:26.909Z,9.75
2023-12-18T03:21:54.368Z,10.80
2023-12-18T03:24:23.810Z,9.68
2023-12-18T03:26:51.530Z,10.07
2023-12-18T03:29:18.929Z,9.55
2023-12-18T03:31:47.635Z,9.35
2023-12-18T03:34:15.081Z,9.68
2023-12-18T03:36:42.662Z,9.43
2023-12-18T03:39:10.185Z,9.50
2023-12-18T03:41:37.560Z,10.40
2023-12-18T03:44:05.017Z,9.90
2023-12-18T03:46:32.380Z,10.80
2023-12-18T03:49:01.147Z,11.18
2023-12-18T03:51:28.695Z,10.35
2023-12-18T03:53:56.140Z,11.48
2023-12-18T03:56:23.584Z,12.50
2023-12-18T03:58:50.937Z,12.90
2023-12-18T04:01:18.471Z,14.20
2023-12-18T04:03:45.941Z,12.70
2023-12-18T04:06:14.786Z,12.32
2023-12-18T04:08:42.155Z,12.55
2023-12-18T04:11:15.503Z,12.50
2023-12-18T04:13:43.323Z,12.95
2023-12-18T04:16:10.903Z,12.80
2023-12-18T04:18:38.617Z,12.75
2023-12-18T04:21:06.234Z,11.93
2023-12-18T04:23:35.530Z,12.23
2023-12-18T04:26:02.911Z,11.55
2023-12-18T04:28:30.280Z,11.00
2023-12-18T04:30:57.771Z,12.77
2023-12-18T04:33:25.375Z,12.05
2023-12-18T04:35:52.843Z,12.55
2023-12-18T04:38:20.292Z,13.05
2023-12-18T04:40:49.043Z,12.07
2023-12-18T04:43:16.447Z,12.73
2023-12-18T04:45:43.963Z,12.10
2023-12-18T04:48:11.586Z,12.85
2023-12-18T04:50:39.084Z,12.68
2023-12-18T04:53:06.420Z,12.93
2023-12-18T04:55:33.834Z,13.77
2023-12-18T04:58:02.566Z,13.38
2023-12-18T05:00:29.920Z,12.75
2023-12-18T05:02:57.440Z,14.43
2023-12-18T05:05:26.633Z,13.27
2023-12-18T05:07:54.096Z,12.60
2023-12-18T05:10:21.569Z,14.63
2023-12-18T05:12:49.012Z,13.43
2023-12-18T05:15:17.784Z,14.20
2023-12-18T05:17:45.274Z,12.82
2023-12-18T05:20:13.773Z,12.73
2023-12-18T05:22:41.431Z,13.50
2023-12-18T05:25:10.356Z,12.82
2023-12-18T05:27:37.838Z,15.30
2023-12-18T05:30:06.055Z,14.15
2023-12-18T05:32:34.989Z,13.07
2023-12-18T05:35:02.461Z,12.95
2023-12-18T05:37:30.536Z,13.43
2023-12-18T05:39:57.105Z,12.77
2023-12-18T05:42:24.567Z,13.63
2023-12-18T05:44:51.964Z,12.77
2023-12-18T05:47:19.413Z,13.75
2023-12-18T05:49:50.639Z,14.25
2023-12-18T05:52:20.053Z,13.35
2023-12-18T05:54:47.541Z,14.55
2023-12-18T05:57:18.213Z,13.68
2023-12-18T05:59:45.993Z,10.18
2023-12-18T06:02:13.489Z,13.32
2023-12-18T06:04:43.117Z,12.60
2023-12-18T06:07:12.305Z,14.23
2023-12-18T06:09:41.178Z,14.32
2023-12-18T06:12:09.003Z,14.52
2023-12-18T06:14:37.195Z,14.07
2023-12-18T06:17:05.728Z,13.07
2023-12-18T06:19:33.272Z,12.50
2023-12-18T06:22:09.715Z,12.57
2023-12-18T06:24:40.213Z,13.27
2023-12-18T06:27:08.112Z,11.65
2023-12-18T06:29:35.556Z,11.93
2023-12-18T06:32:03.009Z,11.55
2023-12-18T06:34:30.581Z,11.60
2023-12-18T06:36:58.052Z,12.55
2023-12-18T06:39:25.475Z,11.43
2023-12-18T06:41:54.179Z,12.30
2023-12-18T06:44:21.591Z,12.15
2023-12-18T06:46:48.972Z,12.40
2023-12-18T06:49:16.434Z,12.77
2023-12-18T06:51:45.489Z,11.80
2023-12-18T06:54:13.175Z,12.45
2023-12-18T06:56:40.554Z,12.13
2023-12-18T06:59:09.230Z,12.07
2023-12-18T07:01:36.726Z,12.10
2023-12-18T07:04:04.951Z,11.73
2023-12-18T07:06:33.422Z,11.38
2023-12-18T07:09:00.876Z,12.80
2023-12-18T07:11:28.369Z,11.20
2023-12-18T07:13:55.757Z,11.77
2023-12-18T07:16:24.639Z,11.48
2023-12-18T07:18:52.099Z,11.98
2023-12-18T07:21:19.647Z,11.45
2023-12-18T07:23:47.165Z,12.30
2023-12-18T07:26:14.836Z,11.35
2023-12-18T07:28:42.388Z,12.38
2023-12-18T07:31:10.054Z,11.90
2023-12-18T07:33:38.924Z,12.90
2023-12-18T07:36:06.556Z,11.95
2023-12-18T07:38:33.951Z,12.73
2023-12-18T07:41:03.807Z,11.98
2023-12-18T07:43:31.200Z,11.57
2023-12-18T07:45:58.640Z,12.45
2023-12-18T07:48:27.107Z,13.25
2023-12-18T07:50:56.987Z,12.82
2023-12-18T07:53:24.502Z,12.75
2023-12-18T07:55:54.263Z,14.82
2023-12-18T07:58:21.814Z,12.38
2023-12-18T08:00:49.324Z,11.48
2023-12-18T08:03:16.940Z,12.35
2023-12-18T08:05:44.422Z,12.40
2023-12-18T08:08:13.187Z,11.70
2023-12-18T08:10:40.580Z,11.90
2023-12-18T08:13:07.970Z,11.63
2023-12-18T08:15:35.378Z,11.93
2023-12-18T08:18:03.037Z,11.82
2023-12-18T08:20:30.456Z,11.05
2023-12-18T08:22:57.899Z,12.43
2023-12-18T08:25:26.846Z,12.35
2023-12-18T08:27:54.411Z,11.32
2023-12-18T08:30:21.909Z,10.60
2023-12-18T08:32:49.369Z,10.52
2023-12-18T08:35:16.737Z,10.02
2023-12-18T08:37:44.136Z,9.43
2023-12-18T08:40:12.396Z,10.30
2023-12-18T08:42:41.388Z,9.32
2023-12-18T08:45:09.512Z,9.50
2023-12-18T08:47:37.004Z,8.80
2023-12-18T08:50:04.748Z,9.45
2023-12-18T08:52:32.183Z,8.23
2023-12-18T08:54:59.552Z,8.95
2023-12-18T08:57:26.937Z,8.88
2023-12-18T08:59:56.470Z,8.40
2023-12-18T09:02:23.842Z,8.88
2023-12-18T09:04:51.297Z,8.93
2023-12-18T09:07:18.703Z,9.82
2023-12-18T09:09:46.259Z,9.40
2023-12-18T09:12:13.923Z,8.68
2023-12-18T09:14:41.313Z,8.88
2023-12-18T09:17:10.083Z,8.95
2023-12-18T09:19:37.781Z,9.02
2023-12-18T09:22:06.224Z,8.73
2023-12-18T09:24:33.824Z,9.50
2023-12-18T09:27:02.221Z,8.75
2023-12-18T09:29:29.632Z,8.77
2023-12-18T09:31:57.112Z,9.45
2023-12-18T09:34:26.039Z,8.85
2023-12-18T09:36:53.443Z,9.90
2023-12-18T09:39:20.877Z,8.93
2023-12-18T09:41:48.334Z,8.98
2023-12-18T09:44:15.828Z,8.65
2023-12-18T09:46:43.291Z,8.95
2023-12-18T09:49:11.032Z,9.30
2023-12-18T09:51:41.179Z,9.40
2023-12-18T09:54:08.904Z,9.75
2023-12-18T09:56:37.025Z,9.25
2023-12-18T09:59:05.192Z,9.60
2023-12-18T10:01:32.891Z,9.98
2023-12-18T10:04:00.510Z,10.20
2023-12-18T10:06:28.180Z,9.52
2023-12-18T10:08:56.946Z,10.32
2023-12-18T10:11:24.544Z,9.88
2023-12-18T10:13:52.379Z,9.70
2023-12-18T10:16:19.826Z,9.70
2023-12-18T10:18:47.435Z,9.77
2023-12-18T10:21:14.902Z,10.02
2023-12-18T10:23:42.311Z,9.75
2023-12-18T10:26:11.567Z,10.23
2023-12-18T10:28:38.968Z,9.63
2023-12-18T10:31:09.863Z,9.57
2023-12-18T10:33:38.655Z,7.20
2023-12-18T10:36:08.226Z,9.25
2023-12-18T10:38:37.734Z,8.73
2023-12-18T10:41:05.532Z,9.80
2023-12-18T10:43:34.598Z,9.38
2023-12-18T10:46:03.702Z,10.27
2023-12-18T10:48:31.386Z,10.60
2023-12-18T10:50:59.425Z,9.93
2023-12-18T10:53:27.336Z,10.93
2023-12-18T10:55:55.201Z,9.65
2023-12-18T10:58:23.019Z,10.25
2023-12-18T11:00:54.060Z,9.73
2023-12-18T11:03:27.872Z,7.82
2023-12-18T11:05:55.881Z,10.15
2023-12-18T11:08:23.271Z,10.57
2023-12-18T11:10:51.251Z,10.07
2023-12-18T11:13:24.596Z,10.90
2023-12-18T11:15:57.718Z,11.38
2023-12-18T11:18:28.180Z,10.93
2023-12-18T11:20:56.898Z,10.75
2023-12-18T11:23:26.523Z,11.07
2023-12-18T11:25:55.427Z,10.40
2023-12-18T11:28:26.356Z,11.27
2023-12-18T11:31:01.545Z,10.90
2023-12-18T11:33:38.545Z,10.52
2023-12-18T11:36:11.872Z,10.90
2023-12-18T11:38:39.718Z,10.63
2023-12-18T11:41:07.114Z,10.98
2023-12-18T11:43:38.153Z,11.20
2023-12-18T11:46:16.877Z,8.15
2023-12-18T11:48:46.830Z,11.07
2023-12-18T11:51:15.317Z,11.63
2023-12-18T11:53:42.750Z,11.82
2023-12-18T11:56:10.719Z,11.25
2023-12-18T11:58:38.745Z,11.57
2023-12-18T12:01:07.900Z,11.68
2023-12-18T12:03:35.652Z,12.57
2023-12-18T12:06:04.423Z,11.80
2023-12-18T12:08:31.905Z,10.23
2023-12-18T12:10:59.395Z,11.65
2023-12-18T12:13:27.219Z,11.75
2023-12-18T12:15:58.398Z,11.65
2023-12-18T12:18:28.385Z,8.63
2023-12-18T12:20:56.298Z,12.00
2023-12-18T12:23:23.885Z,11.18
2023-12-18T12:25:52.608Z,11.68
2023-12-18T12:28:21.765Z,10.70
2023-12-18T12:30:49.363Z,11.85
2023-12-18T12:33:17.679Z,10.20
2023-12-18T12:35:46.830Z,10.07
2023-12-18T12:38:16.366Z,11.10
2023-12-18T12:40:44.824Z,10.80
2023-12-18T12:43:12.974Z,10.15
2023-12-18T12:45:40.652Z,10.50
2023-12-18T12:48:09.012Z,9.70
2023-12-18T12:50:37.108Z,9.80
2023-12-18T12:53:06.023Z,10.15
2023-12-18T12:55:33.451Z,10.05
2023-12-18T12:58:00.887Z,10.02
2023-12-18T13:00:30.077Z,9.70
2023-12-18T13:02:57.796Z,10.55
2023-12-18T13:05:25.640Z,9.48
2023-12-18T13:07:53.241Z,9.23
2023-12-18T13:10:22.083Z,9.88
2023-12-18T13:12:49.679Z,9.50
2023-12-18T13:15:17.483Z,9.73
2023-12-18T13:17:46.608Z,9.23
2023-12-18T13:20:19.454Z,9.68
2023-12-18T13:22:55.714Z,8.80
2023-12-18T13:25:24.534Z,8.98
2023-12-18T13:27:52.136Z,8.48
2023-12-18T13:30:19.655Z,9.20
2023-12-18T13:32:47.237Z,8.45
2023-12-18T13:35:14.805Z,8.55
2023-12-18T13:37:42.508Z,9.30
2023-12-18T13:40:10.389Z,8.30
2023-12-18T13:42:39.128Z,8.13
2023-12-18T13:45:07.095Z,8.65
2023-12-18T13:47:34.535Z,9.10
2023-12-18T13:50:02.180Z,9.15
2023-12-18T13:52:29.745Z,8.52
2023-12-18T13:54:57.225Z,8.73
2023-12-18T13:57:25.182Z,8.85
2023-12-18T13:59:54.878Z,8.38
2023-12-18T14:02:22.280Z,8.38
2023-12-18T14:04:49.742Z,9.15
2023-12-18T14:07:17.178Z,8.32
2023-12-18T14:09:44.574Z,8.35
2023-12-18T14:12:12.093Z,8.18
2023-12-18T14:14:39.498Z,8.18
2023-12-18T14:17:08.332Z,8.25
2023-12-18T14:19:35.836Z,8.32
2023-12-18T14:22:03.377Z,7.85
2023-12-18T14:24:30.779Z,8.90
2023-12-18T14:26:58.189Z,7.93
2023-12-18T14:29:25.620Z,7.90
2023-12-18T14:31:53.132Z,8.23
2023-12-18T14:34:22.084Z,8.05
2023-12-18T14:36:49.639Z,7.35
2023-12-18T14:39:17.096Z,7.90
2023-12-18T14:41:45.266Z,7.15
2023-12-18T14:44:12.717Z,7.20
2023-12-18T14:46:40.113Z,7.30
2023-12-18T14:49:07.655Z,8.15
2023-12-18T14:51:36.572Z,6.57
2023-12-18T14:54:04.514Z,6.85
2023-12-18T14:56:37.253Z,7.20
2023-12-18T14:59:07.068Z,6.68
2023-12-18T15:01:34.593Z,6.68
2023-12-18T15:04:10.313Z,6.88
2023-12-18T15:06:44.713Z,6.70
2023-12-18T15:09:13.835Z,6.53
2023-12-18T15:11:42.203Z,6.30
2023-12-18T15:14:11.514Z,6.68
2023-12-18T15:16:38.935Z,6.80
2023-12-18T15:19:06.446Z,7.13
2023-12-18T15:21:34.026Z,7.20
2023-12-18T15:24:09.286Z,7.90
2023-12-18T15:26:38.598Z,7.20
2023-12-18T15:29:06.135Z,7.32
2023-12-18T15:31:33.698Z,8.13
2023-12-18T15:34:03.656Z,7.38
2023-12-18T15:36:33.494Z,7.47
2023-12-18T15:39:00.852Z,6.88
2023-12-18T15:41:30.477Z,7.70
2023-12-18T15:43:58.114Z,7.63
2023-12-18T15:46:25.612Z,7.70
2023-12-18T15:48:53.358Z,7.75
2023-12-18T15:51:21.010Z,8.00
2023-12-18T15:53:48.370Z,7.32
2023-12-18T15:56:15.996Z,7.63
2023-12-18T15:58:45.185Z,7.45
2023-12-18T16:01:13.090Z,7.40
2023-12-18T16:03:41.275Z,7.53
2023-12-18T16:06:08.771Z,7.22
2023-12-18T16:08:36.970Z,6.57
2023-12-18T16:11:04.508Z,6.20
2023-12-18T16:13:31.919Z,6.63
2023-12-18T16:16:00.724Z,6.05
2023-12-18T16:18:28.218Z,7.03
2023-12-18T16:20:55.673Z,6.03
2023-12-18T16:23:23.627Z,7.63
2023-12-18T16:25:51.017Z,6.80
2023-12-18T16:28:18.460Z,7.20
2023-12-18T16:30:56.669Z,7.38
2023-12-18T16:33:27.384Z,7.13
2023-12-18T16:35:55.380Z,7.20
2023-12-18T16:38:22.999Z,7.22
2023-12-18T16:40:51.694Z,8.13
2023-12-18T16:43:19.098Z,7.53
2023-12-18T16:45:46.578Z,8.45
2023-12-18T16:48:14.133Z,8.63
2023-12-18T16:50:43.089Z,8.35
2023-12-18T16:53:10.517Z,8.85
2023-12-18T16:55:38.541Z,8.23
2023-12-18T16:58:06.014Z,10.50
2023-12-18T17:00:34.263Z,12.95
2023-12-18T17:03:01.932Z,13.70
2023-12-18T17:05:29.595Z,9.52
2023-12-18T17:07:58.371Z,9.43
2023-12-18T17:10:25.997Z,10.57
2023-12-18T17:12:53.452Z,12.30
2023-12-18T17:15:21.764Z,13.48
2023-12-18T17:17:58.190Z,12.10
2023-12-18T17:20:26.381Z,12.55
2023-12-18T17:22:53.748Z,13.73
2023-12-18T17:25:22.423Z,13.00
2023-12-18T17:27:50.006Z,10.00
2023-12-18T17:30:17.637Z,10.45
2023-12-18T17:32:45.298Z,9.85
2023-12-18T17:35:13.001Z,9.68
2023-12-18T17:37:40.528Z,10.60
2023-12-18T17:40:08.660Z,10.90
2023-12-18T17:42:37.397Z,10.07
2023-12-18T17:45:05.096Z,11.57
2023-12-18T17:47:33.046Z,10.68
2023-12-18T17:50:00.979Z,12.00
2023-12-18T17:52:28.778Z,11.02
2023-12-18T17:54:56.242Z,10.80
2023-12-18T17:57:23.837Z,11.32
2023-12-18T17:59:54.462Z,11.60
2023-12-18T18:02:23.657Z,13.18
2023-12-18T18:04:51.333Z,11.18
2023-12-18T18:07:18.759Z,11.90
2023-12-18T18:09:46.220Z,11.85
2023-12-18T18:12:14.240Z,11.27
2023-12-18T18:14:41.729Z,11.15
2023-12-18T18:17:10.546Z,10.90
2023-12-18T18:19:38.178Z,12.88
2023-12-18T18:22:05.668Z,12.15
2023-12-18T18:24:34.434Z,12.45
2023-12-18T18:27:09.026Z,13.23
2023-12-18T18:29:38.563Z,12.20
2023-12-18T18:32:06.678Z,11.48
2023-12-18T18:34:38.150Z,11.88
2023-12-18T18:37:05.696Z,13.35
2023-12-18T18:39:33.319Z,12.98
2023-12-18T18:42:00.926Z,13.07
2023-12-18T18:44:28.448Z,12.10
2023-12-18T18:46:58.460Z,13.63
2023-12-18T18:49:25.942Z,13.43
2023-12-18T18:51:54.855Z,13.20
2023-12-18T18:54:22.438Z,12.27
2023-12-18T18:56:50.047Z,12.82
2023-12-18T18:59:17.482Z,13.13
2023-12-18T19:01:44.931Z,13.57
2023-12-18T19:04:14.480Z,12.25
2023-12-18T19:06:42.052Z,12.18
2023-12-18T19:09:10.995Z,13.23
2023-12-18T19:11:38.608Z,12.75
2023-12-18T19:14:06.129Z,12.82
2023-12-18T19:16:33.866Z,13.63
2023-12-18T19:19:01.477Z,13.60
2023-12-18T19:21:29.008Z,13.30
2023-12-18T19:23:56.622Z,14.15
2023-12-18T19:26:25.405Z,13.13
2023-12-18T19:28:53.180Z,13.63
2023-12-18T19:31:20.877Z,12.30
2023-12-18T19:33:48.577Z,12.52
2023-12-18T19:36:16.552Z,13.23
2023-12-18T19:38:44.328Z,12.27
2023-12-18T19:41:12.869Z,12.35
2023-12-18T19:43:41.637Z,10.73
2023-12-18T19:46:09.061Z,11.90
2023-12-18T19:48:36.799Z,11.45
2023-12-18T19:51:04.505Z,11.88
2023-12-18T19:53:32.159Z,12.63
2023-12-18T19:56:02.807Z,12.68
2023-12-18T19:58:30.338Z,12.15
2023-12-18T20:00:59.367Z,11.65
2023-12-18T20:03:26.945Z,11.40
2023-12-18T20:05:54.577Z,10.93
2023-12-18T20:08:22.082Z,10.90
2023-12-18T20:10:49.673Z,11.25
2023-12-18T20:13:17.193Z,10.40
2023-12-18T20:15:44.641Z,11.32
2023-12-18T20:18:18.538Z,11.55
2023-12-18T20:20:46.202Z,11.35
2023-12-18T20:23:13.730Z,10.25
2023-12-18T20:25:41.174Z,11.25
2023-12-18T20:28:08.668Z,11.32
2023-12-18T20:30:36.659Z,11.60
2023-12-18T20:33:04.869Z,11.07
2023-12-18T20:35:34.202Z,12.05
2023-12-18T20:38:01.692Z,11.90
2023-12-18T20:40:29.198Z,11.10
2023-12-18T20:42:56.716Z,11.63
2023-12-18T20:45:24.279Z,11.90
2023-12-18T20:47:51.826Z,11.82
2023-12-18T20:50:19.248Z,12.32
2023-12-18T20:52:48.432Z,12.32
2023-12-18T20:55:16.070Z,12.07
2023-12-18T20:57:43.825Z,11.43
2023-12-18T21:00:22.949Z,12.50
2023-12-18T21:02:52.828Z,13.07
2023-12-18T21:05:20.717Z,12.48
2023-12-18T21:07:49.561Z,12.98
2023-12-18T21:10:17.039Z,13.65
2023-12-18T21:12:44.821Z,13.23
2023-12-18T21:15:12.533Z,12.95
2023-12-18T21:17:40.016Z,13.55
2023-12-18T21:20:07.997Z,13.65
2023-12-18T21:22:35.658Z,13.90
2023-12-18T21:25:06.366Z,14.27
2023-12-18T21:27:34.173Z,15.02
2023-12-18T21:30:01.703Z,14.95
2023-12-18T21:32:29.564Z,15.13
2023-12-18T21:34:57.054Z,14.25
2023-12-18T21:37:33.618Z,14.50
2023-12-18T21:40:01.241Z,14.30
2023-12-18T21:42:30.166Z,15.27
2023-12-18T21:44:57.580Z,14.55
2023-12-18T21:47:29.413Z,14.30
2023-12-18T21:52:24.439Z,14.40
2023-12-18T21:54:51.957Z,13.80
2023-12-18T21:57:19.410Z,14.75
2023-12-18T21:59:48.172Z,13.88
2023-12-18T22:02:16.165Z,14.93
2023-12-18T22:04:43.631Z,14.25
2023-12-18T22:07:11.378Z,14.23
2023-12-18T22:09:40.462Z,14.27
2023-12-18T22:12:08.620Z,13.10
2023-12-18T22:14:36.096Z,13.77
2023-12-18T22:17:05.602Z,14.02
2023-12-18T22:19:33.321Z,13.45
2023-12-18T22:22:03.920Z,13.85
2023-12-18T22:24:31.445Z,13.77
2023-12-18T22:27:00.700Z,12.95
2023-12-18T22:29:28.159Z,12.43
2023-12-18T22:31:58.957Z,11.65
2023-12-18T22:34:28.015Z,12.17
2023-12-18T22:36:56.159Z,10.88
2023-12-18T22:39:23.760Z,10.60
2023-12-18T22:41:51.232Z,11.50
2023-12-18T22:44:20.775Z,10.63
2023-12-18T22:46:48.357Z,10.05
2023-12-18T22:49:15.820Z,9.23
2023-12-18T22:51:44.600Z,9.43
2023-12-18T22:54:12.033Z,9.23
2023-12-18T22:56:39.650Z,8.50
2023-12-18T22:59:07.063Z,8.95
2023-12-18T23:01:34.668Z,9.10
2023-12-18T23:04:02.305Z,9.18
2023-12-18T23:06:29.854Z,8.82
2023-12-18T23:08:58.584Z,8.90
2023-12-18T23:11:25.992Z,8.70
2023-12-18T23:13:53.411Z,9.35
2023-12-18T23:16:20.845Z,8.23
2023-12-18T23:18:48.976Z,8.27
2023-12-18T23:21:16.546Z,8.70
2023-12-18T23:23:44.129Z,8.55
2023-12-18T23:26:11.985Z,7.65
2023-12-18T23:28:39.864Z,8.50
2023-12-18T23:31:07.343Z,7.22
2023-12-18T23:33:35.086Z,7.50
2023-12-18T23:36:02.632Z,7.85
2023-12-18T23:38:30.073Z,7.57
2023-12-18T23:40:57.482Z,7.50
2023-12-18T23:43:26.827Z,7.13
2023-12-18T23:45:54.481Z,7.97
2023-12-18T23:48:22.006Z,7.40
2023-12-18T23:50:49.409Z,6.57
2023-12-18T23:53:16.846Z,7.10
2023-12-18T23:55:44.409Z,6.70
2023-12-18T23:58:12.242Z,6.43
